Edina, MN (55435)

17:19 CDT le 01 septembre 2015 (GMT -0500)
Cornelia | | Change Station
CLOSE
Current Station
Stations météorologiques personnelles
Location: Edina, MN
Altitude: 860 ft
Stations météo à proximité

Alt. 860 ft 44.87 °N, 93.34 °W | Updated 11 seconds ago

Nuageux
Nuageux
84.7 ° F
Paraît 92 ° F
N
0.0
Vent Variable Vent de Sud
Gusts 0.0 mph

Aujourd'hui
Haut(e) -- | Bas -- ° F
--% Risque de précip.
Hier
Haut(e) -- | Bas -- ° F
Precip. -- pouce
6:35 AM 7:50 PM
Lune gibbeuse décroissante, 86% visible
Pression 29.86 pouce
Visibilité 10.0 Miles terrestres
Nuages Peu 11000 ft
Nuages épars 17000 ft
Nuageux 20000 ft
Couvert 30000 ft
indice de chaleur 92 ° F
Point de rosée 74 ° F
Humidité 69%
Précipitations 0.00 pouce
Profondeur de la couche neigeuse Non disponible.
UV 1.0 sur 12
Pollen 9.70 sur 12
Qualité de l'air Non disponible.
Flu Activity Non disponible.
METAR KMSP 012153Z 19006KT 10SM FEW110 SCT170 BKN200 OVC300 29/22 A2988 RMK AO2 SLP112 ACC DSNT SE-S T02940222
Pression 29.86 pouce
Visibilité 10.0 Miles terrestres
Nuages Peu 11000 ft
Nuages épars 17000 ft
Nuageux 20000 ft
Couvert 30000 ft
indice de chaleur 92 ° F
Point de rosée 74 ° F
Humidité 69%
Précipitations 0.00 pouce
Profondeur de la couche neigeuse Non disponible.
UV 1.0 sur 12
Pollen 9.70 sur 12
Qualité de l'air Non disponible.
Flu Activity Non disponible.
METAR KMSP 012153Z 19006KT 10SM FEW110 SCT170 BKN200 OVC300 29/22 A2988 RMK AO2 SLP112 ACC DSNT SE-S T02940222

10-Day Weather Forecast

×

Almanac

Astronomie

Sep. 01, 2015 Lever Coucher
Temps réel
Crépuscule civil
Crépuscule nautique
Crépuscule astronomique
Lune
Durée de lumière visible
Longueur du jour
Tomorrow will be .
, % of the Moon is Illuminated

Extrêmes aujourd'hui

State Highs State Lows

Community

WunderPhotos

Upload Photos

1,851,632 Photos téléchargées !

WunderBlogs® & News

Nearby

Qualité de l'air

  Qualité de l'air Indice de la qualité de l'air Polluant
Not available.

Épaisseur de neige

Station Depth Altitude

Activité sismique

Ville Distance Mag. Time & Date
Minimum magnitude displayed is 2.5.

Températures des eaux côtières

Lieu Température

Stations

Stations météo à proximité

Emplacement de la station Température Refroidissement éolien Point de rosée Humidité Vent Precip. Alt. Mise à jour Type